Time;durP1;ratioP1;P1;durP2;ratioP2;P2;SDS_P1;SDS_P2;PMS_P1;PMS_P2;Temp;Humidity;BMP_temperature;BMP_pressure;BME280_temperature;BME280_humidity;BME280_pressure;Samples;Min_cycle;Max_cycle;Signal;HPM_P1;HPM_P2
2023/03/05 00:00:05;;;;;;;1.80;1.70;;;;;;;5.84;100.00;99038.97;5036724;28;20201;-66
2023/03/05 00:02:32;;;;;;;0.50;0.50;;;;;;;5.81;100.00;99039.03;5038582;28;20255;-66
2023/03/05 00:04:59;;;;;;;0.60;0.60;;;;;;;5.82;100.00;99035.59;5037236;28;20197;-66
2023/03/05 00:07:26;;;;;;;0.80;0.80;;;;;;;5.82;100.00;99045.78;5039982;28;20207;-65
2023/03/05 00:09:52;;;;;;;0.40;0.40;;;;;;;5.80;100.00;99040.72;5037712;28;20198;-66
2023/03/05 00:12:19;;;;;;;0.50;0.50;;;;;;;5.78;100.00;99036.53;5037147;28;20251;-66
2023/03/05 00:14:46;;;;;;;0.50;0.50;;;;;;;5.75;100.00;99034.84;5033148;28;20201;-66
2023/03/05 00:17:14;;;;;;;0.80;0.80;;;;;;;5.75;100.00;99045.03;5038780;28;20205;-66
2023/03/05 00:19:41;;;;;;;0.70;0.70;;;;;;;5.72;100.00;99036.59;5033467;28;20213;-65
2023/03/05 00:22:08;;;;;;;0.60;0.60;;;;;;;5.72;100.00;99039.16;5033950;28;20612;-66
2023/03/05 00:24:34;;;;;;;0.50;0.50;;;;;;;5.70;100.00;99045.97;5034247;28;20736;-66
2023/03/05 00:27:01;;;;;;;0.60;0.60;;;;;;;5.63;100.00;99032.53;5033164;28;20209;-65
2023/03/05 00:29:28;;;;;;;0.70;0.70;;;;;;;5.63;100.00;99034.22;5036933;28;20196;-65
2023/03/05 00:31:55;;;;;;;0.50;0.50;;;;;;;5.61;100.00;99030.88;5038684;28;20201;-65
2023/03/05 00:34:24;;;;;;;0.60;0.60;;;;;;;5.61;100.00;99028.34;5040419;28;20205;-65
2023/03/05 00:36:52;;;;;;;0.60;0.60;;;;;;;5.48;100.00;99002.28;5032459;28;20302;-65
2023/03/05 00:39:19;;;;;;;0.40;0.40;;;;;;;5.55;100.00;99000.47;5032538;28;20197;-65
2023/03/05 00:41:47;;;;;;;0.50;0.50;;;;;;;5.60;100.00;99017.31;5033361;28;20642;-65
2023/03/05 00:44:13;;;;;;;0.50;0.50;;;;;;;5.58;100.00;99011.44;5033625;28;20205;-66
2023/03/05 00:46:40;;;;;;;0.50;0.50;;;;;;;5.59;100.00;99014.81;5033886;28;20220;-65
2023/03/05 00:49:07;;;;;;;0.50;0.50;;;;;;;5.57;100.00;99008.91;5033809;28;20201;-65
2023/03/05 00:51:35;;;;;;;0.70;0.70;;;;;;;5.53;100.00;99004.72;5033466;28;20197;-65
2023/03/05 00:54:03;;;;;;;0.50;0.50;;;;;;;5.51;100.00;99003.91;5033074;28;20201;-65
2023/03/05 00:56:29;;;;;;;2.00;1.00;;;;;;;5.52;100.00;99003.06;5032802;28;20201;-65
2023/03/05 00:58:57;;;;;;;0.70;0.70;;;;;;;5.52;100.00;98995.44;5035617;28;20204;-65
2023/03/05 01:01:25;;;;;;;0.67;0.67;;;;;;;5.54;100.00;98991.16;5032261;28;20604;-65
2023/03/05 01:03:51;;;;;;;0.40;0.40;;;;;;;5.52;100.00;98995.44;5032744;28;20559;-65
2023/03/05 01:06:18;;;;;;;0.60;0.60;;;;;;;5.45;100.00;98989.63;5033072;28;20201;-65
2023/03/05 01:08:46;;;;;;;1.00;1.00;;;;;;;5.53;100.00;98997.09;5033240;28;20271;-65
2023/03/05 01:11:13;;;;;;;0.57;0.57;;;;;;;5.53;100.00;98992.00;5032256;28;20656;-65
2023/03/05 01:13:40;;;;;;;0.60;0.60;;;;;;;5.50;100.00;98999.69;5038477;28;20741;-65
2023/03/05 01:16:08;;;;;;;1.00;1.00;;;;;;;5.45;100.00;98989.63;5035266;28;20208;-65
2023/03/05 01:18:35;;;;;;;0.40;0.40;;;;;;;5.46;100.00;99000.63;5033547;28;20248;-65
2023/03/05 01:21:02;;;;;;;0.50;0.50;;;;;;;5.44;100.00;98995.56;5031750;28;20695;-65
2023/03/05 01:23:28;;;;;;;0.60;0.60;;;;;;;5.44;100.00;98999.78;5031057;28;20220;-65
2023/03/05 01:25:59;;;;;;;0.50;0.50;;;;;;;5.45;100.00;98998.94;5032809;28;20649;-65
2023/03/05 01:28:26;;;;;;;0.50;0.50;;;;;;;5.44;100.00;98994.72;5032674;28;20612;-65
2023/03/05 01:30:52;;;;;;;1.00;1.00;;;;;;;5.42;100.00;98991.38;5032563;28;20201;-65
2023/03/05 01:33:19;;;;;;;1.83;1.73;;;;;;;5.40;100.00;98990.53;5032634;28;20251;-65
2023/03/05 01:35:47;;;;;;;0.60;0.60;;;;;;;5.19;100.00;98967.16;5032618;28;20197;-65
2023/03/05 01:38:14;;;;;;;3.40;1.80;;;;;;;5.34;100.00;98981.31;5034207;28;20221;-65
2023/03/05 01:40:42;;;;;;;0.80;0.80;;;;;;;5.26;100.00;98986.53;5032715;28;20205;-65
2023/03/05 01:43:23;;;;;;;0.50;0.50;;;;;;;5.23;100.00;98983.19;5032711;28;20201;-65
2023/03/05 01:46:21;;;;;;;0.70;0.70;;;;;;;5.21;100.00;98975.59;5031728;28;20232;-65
2023/03/05 01:48:52;;;;;;;0.50;0.50;;;;;;;5.07;100.00;98966.50;5027434;28;20197;-65
2023/03/05 01:51:22;;;;;;;0.50;0.50;;;;;;;5.19;100.00;98976.47;5032531;28;20684;-65
2023/03/05 01:53:49;;;;;;;0.67;0.67;;;;;;;5.21;100.00;98964.56;5032290;28;20201;-65
2023/03/05 01:56:16;;;;;;;0.50;0.50;;;;;;;5.25;100.00;98971.28;5034271;28;20204;-65
2023/03/05 01:58:45;;;;;;;0.50;0.50;;;;;;;5.26;100.00;98958.56;5032696;28;20202;-65
2023/03/05 02:01:12;;;;;;;0.50;0.50;;;;;;;5.29;100.00;98963.59;5033249;28;20313;-66
2023/03/05 02:03:40;;;;;;;0.50;0.50;;;;;;;5.32;100.00;98956.78;5033019;28;20194;-66
2023/03/05 02:06:07;;;;;;;0.60;0.60;;;;;;;5.33;100.00;98958.47;5033587;28;20198;-65
2023/03/05 02:08:34;;;;;;;0.67;0.67;;;;;;;5.35;100.00;98952.50;5030715;28;20201;-64
2023/03/05 02:11:01;;;;;;;0.40;0.40;;;;;;;5.34;100.00;98955.06;5034195;28;20553;-66
2023/03/05 02:13:31;;;;;;;0.70;0.70;;;;;;;5.33;100.00;98958.47;5033035;28;20262;-65
2023/03/05 02:16:01;;;;;;;0.50;0.50;;;;;;;5.34;100.00;98955.06;5031729;28;20224;-65
2023/03/05 02:18:28;;;;;;;2.43;1.00;;;;;;;5.25;100.00;98935.72;5031050;28;20196;-65
2023/03/05 02:21:02;;;;;;;0.50;0.50;;;;;;;5.37;100.00;98952.47;5035135;28;20221;-65
2023/03/05 02:23:32;;;;;;;0.50;0.50;;;;;;;5.39;100.00;98953.28;5033541;28;20667;-66
2023/03/05 02:25:59;;;;;;;0.50;0.50;;;;;;;5.33;100.00;98946.63;5032856;28;20247;-65
2023/03/05 02:28:30;;;;;;;0.57;0.57;;;;;;;5.37;100.00;98955.00;5039239;28;20250;-66
2023/03/05 02:30:57;;;;;;;0.50;0.50;;;;;;;5.30;100.00;98939.00;5036399;28;20551;-66
2023/03/05 02:33:24;;;;;;;0.60;0.60;;;;;;;5.38;100.00;98954.16;5039943;28;20207;-66
2023/03/05 02:35:51;;;;;;;0.50;0.50;;;;;;;5.32;100.00;98947.47;5037376;28;20197;-65
2023/03/05 02:38:20;;;;;;;0.60;0.60;;;;;;;5.43;100.00;98954.94;5035738;28;20217;-65
2023/03/05 02:40:47;;;;;;;0.50;0.50;;;;;;;5.36;100.00;98945.72;5039184;28;20204;-65
2023/03/05 02:43:14;;;;;;;0.60;0.60;;;;;;;5.43;100.00;98960.00;5039701;28;20640;-66
2023/03/05 02:45:41;;;;;;;0.90;0.90;;;;;;;5.40;100.00;98968.50;5041111;28;20200;-65
2023/03/05 02:48:07;;;;;;;0.50;0.50;;;;;;;5.42;100.00;98959.16;5030002;28;20668;-65
2023/03/05 02:50:38;;;;;;;0.53;0.53;;;;;;;5.40;100.00;98958.34;5031448;28;20212;-65
2023/03/05 02:53:05;;;;;;;0.53;0.53;;;;;;;5.37;100.00;98955.84;5030784;28;20204;-66
2023/03/05 02:55:33;;;;;;;0.47;0.47;;;;;;;5.37;100.00;98957.53;5039287;28;20207;-65
2023/03/05 02:58:00;;;;;;;0.60;0.60;;;;;;;5.34;100.00;98940.66;5035293;28;20279;-65
2023/03/05 03:00:27;;;;;;;0.60;0.60;;;;;;;5.37;100.00;98945.69;5043842;28;20197;-66
2023/03/05 03:02:53;;;;;;;0.50;0.50;;;;;;;5.38;100.00;98942.28;5031961;28;20229;-66
2023/03/05 03:05:20;;;;;;;0.60;0.60;;;;;;;5.39;100.00;98943.13;5029854;28;20201;-65
2023/03/05 03:07:47;;;;;;;0.50;0.50;;;;;;;5.39;100.00;98938.88;5030379;28;20205;-65
2023/03/05 03:10:14;;;;;;;0.50;0.50;;;;;;;5.40;100.00;98937.16;5030449;28;20197;-66
2023/03/05 03:12:44;;;;;;;0.40;0.40;;;;;;;5.39;100.00;98938.03;5031306;28;20202;-66
2023/03/05 03:15:14;;;;;;;0.43;0.43;;;;;;;5.39;100.00;98943.13;5031878;28;20588;-65
2023/03/05 03:17:41;;;;;;;0.90;0.90;;;;;;;5.37;100.00;98934.66;5030953;28;20698;-66
2023/03/05 03:20:12;;;;;;;2.00;1.10;;;;;;;5.39;100.00;98943.13;5032417;28;20637;-66
2023/03/05 03:22:39;;;;;;;0.40;0.40;;;;;;;5.39;100.00;98935.50;5031311;28;20304;-66
2023/03/05 03:25:07;;;;;;;0.60;0.60;;;;;;;5.40;100.00;98927.00;5029835;28;20667;-66
2023/03/05 03:27:34;;;;;;;0.60;0.60;;;;;;;5.39;100.00;98932.97;5030056;28;20212;-66
2023/03/05 03:30:03;;;;;;;0.70;0.70;;;;;;;5.41;100.00;98937.16;5030443;28;20198;-66
2023/03/05 03:32:31;;;;;;;0.77;0.77;;;;;;;5.42;100.00;98932.91;5030699;28;20243;-66
2023/03/05 03:34:58;;;;;;;0.50;0.50;;;;;;;5.45;100.00;98927.75;5031263;28;20255;-66
2023/03/05 03:37:25;;;;;;;1.03;1.03;;;;;;;5.43;100.00;98932.88;5029727;28;20225;-66
2023/03/05 03:39:52;;;;;;;0.50;0.50;;;;;;;5.45;100.00;98932.84;5031969;28;20197;-66
2023/03/05 03:42:20;;;;;;;0.43;0.43;;;;;;;5.29;100.00;98907.72;5031554;28;20221;-66
2023/03/05 03:44:47;;;;;;;0.83;0.83;;;;;;;5.46;100.00;98937.88;5029830;28;20190;-65
2023/03/05 03:47:15;;;;;;;0.50;0.50;;;;;;;5.45;100.00;98943.03;5029882;28;21620;-66
2023/03/05 03:49:42;;;;;;;0.50;0.50;;;;;;;5.42;100.00;98940.53;5030312;28;20692;-66
2023/03/05 03:52:09;;;;;;;0.60;0.60;;;;;;;5.42;100.00;98949.00;5031026;28;20248;-66
2023/03/05 03:54:36;;;;;;;0.50;0.50;;;;;;;5.44;100.00;98942.19;5034353;28;20633;-65
2023/03/05 03:57:03;;;;;;;0.50;0.50;;;;;;;5.36;100.00;98948.25;5031110;28;20212;-66
2023/03/05 03:59:30;;;;;;;0.50;0.50;;;;;;;5.37;100.00;98935.50;5032187;28;20255;-66
2023/03/05 04:01:57;;;;;;;0.60;0.60;;;;;;;5.36;100.00;98928.78;5029595;28;20217;-65
2023/03/05 04:04:27;;;;;;;0.80;0.80;;;;;;;5.39;100.00;98943.97;5029611;28;20213;-66
2023/03/05 04:06:54;;;;;;;0.40;0.40;;;;;;;5.38;100.00;98947.38;5032543;28;21371;-66
2023/03/05 04:09:21;;;;;;;0.50;0.50;;;;;;;5.34;100.00;98950.81;5033105;28;20232;-66
2023/03/05 04:11:48;;;;;;;0.63;0.63;;;;;;;5.32;100.00;98946.63;5033715;28;20205;-66
2023/03/05 04:14:14;;;;;;;0.60;0.60;;;;;;;5.32;100.00;98936.47;5034882;28;20205;-66
2023/03/05 04:16:41;;;;;;;0.70;0.70;;;;;;;5.23;100.00;98922.22;5034576;28;20597;-65
2023/03/05 04:19:08;;;;;;;0.73;0.73;;;;;;;5.33;100.00;98945.78;5035039;28;20252;-66
2023/03/05 04:21:36;;;;;;;0.50;0.50;;;;;;;5.35;100.00;98941.50;5032810;28;20247;-66
2023/03/05 04:24:03;;;;;;;0.50;0.50;;;;;;;5.30;100.00;98934.78;5032690;28;20235;-66
2023/03/05 04:26:30;;;;;;;0.60;0.60;;;;;;;5.32;100.00;98937.31;5033164;28;20229;-66
2023/03/05 04:28:56;;;;;;;0.60;0.60;;;;;;;5.32;100.00;98939.00;5033277;28;20209;-65
2023/03/05 04:31:23;;;;;;;0.80;0.80;;;;;;;5.29;100.00;98933.13;5034751;28;20621;-66
2023/03/05 04:33:50;;;;;;;0.57;0.57;;;;;;;5.30;100.00;98933.94;5034171;28;20193;-65
2023/03/05 04:36:17;;;;;;;0.53;0.53;;;;;;;5.35;100.00;98926.25;5035446;28;20690;-66
2023/03/05 04:38:45;;;;;;;0.60;0.60;;;;;;;5.31;100.00;98925.44;5032724;28;20228;-66
2023/03/05 04:41:12;;;;;;;0.50;0.50;;;;;;;5.32;100.00;98929.69;5033808;28;20209;-66
2023/03/05 04:43:38;;;;;;;0.50;0.50;;;;;;;5.34;100.00;98935.56;5034302;28;20216;-66
2023/03/05 04:46:05;;;;;;;0.50;0.50;;;;;;;5.39;100.00;98927.88;5035690;28;20209;-65
2023/03/05 04:48:32;;;;;;;0.50;0.50;;;;;;;5.40;100.00;98934.63;5034113;28;20258;-66
2023/03/05 04:50:59;;;;;;;0.73;0.73;;;;;;;5.32;100.00;98936.47;5035697;28;20197;-66
2023/03/05 04:53:26;;;;;;;0.70;0.70;;;;;;;5.25;100.00;98941.66;5036177;28;20197;-65
2023/03/05 04:55:54;;;;;;;0.50;0.50;;;;;;;5.26;100.00;98942.50;5033791;28;20201;-65
2023/03/05 04:58:22;;;;;;;0.50;0.50;;;;;;;5.24;100.00;98945.03;5039048;28;20209;-66
2023/03/05 05:00:49;;;;;;;0.80;0.80;;;;;;;5.24;100.00;98952.66;5034350;28;20279;-66
2023/03/05 05:03:16;;;;;;;0.60;0.60;;;;;;;5.23;100.00;98945.91;5032216;28;20217;-66
2023/03/05 05:05:43;;;;;;;0.63;0.63;;;;;;;5.25;100.00;98945.88;5032900;28;20255;-66
2023/03/05 05:08:10;;;;;;;2.63;0.90;;;;;;;5.25;100.00;98951.81;5032822;28;20193;-65
2023/03/05 05:10:38;;;;;;;0.50;0.50;;;;;;;5.27;100.00;98955.16;5033059;28;20209;-71
2023/03/05 05:13:07;;;;;;;1.13;1.13;;;;;;;5.27;100.00;98952.63;5030608;28;20232;-71
2023/03/05 05:15:34;;;;;;;2.73;1.47;;;;;;;5.26;100.00;98963.66;5034920;28;20209;-71
2023/03/05 05:18:00;;;;;;;0.50;0.50;;;;;;;5.24;100.00;98955.22;5031936;28;20201;-71
2023/03/05 05:20:27;;;;;;;0.60;0.60;;;;;;;5.24;100.00;98955.22;5030519;28;20205;-71
2023/03/05 05:22:54;;;;;;;1.33;1.33;;;;;;;5.25;100.00;98964.53;5028942;28;20225;-71
2023/03/05 05:25:21;;;;;;;0.60;0.60;;;;;;;5.25;100.00;98956.91;5031768;28;20603;-71
2023/03/05 05:27:47;;;;;;;1.90;0.90;;;;;;;5.16;100.00;98944.34;5034206;28;20198;-71
2023/03/05 05:30:16;;;;;;;0.70;0.70;;;;;;;5.26;100.00;98962.81;5033594;28;20200;-72
2023/03/05 05:32:43;;;;;;;0.60;0.60;;;;;;;5.26;100.00;98965.34;5031928;28;20193;-71
2023/03/05 05:35:10;;;;;;;0.70;0.70;;;;;;;5.27;100.00;98972.94;5033292;28;20656;-72
2023/03/05 05:37:37;;;;;;;0.43;0.43;;;;;;;5.27;100.00;98974.63;5029572;28;20241;-71
2023/03/05 05:40:05;;;;;;;0.70;0.70;;;;;;;5.28;100.00;98976.31;5031423;28;20676;-72
2023/03/05 05:42:33;;;;;;;0.40;0.40;;;;;;;5.28;100.00;98972.09;5031665;28;20703;-71
2023/03/05 05:45:01;;;;;;;0.50;0.50;;;;;;;5.14;100.00;98953.66;5031957;28;20220;-71
2023/03/05 05:47:30;;;;;;;0.50;0.50;;;;;;;5.26;100.00;98973.81;5031825;28;20688;-71
2023/03/05 05:49:57;;;;;;;0.47;0.47;;;;;;;5.29;100.00;98978.00;5032797;28;20198;-71
2023/03/05 05:52:24;;;;;;;0.60;0.60;;;;;;;5.30;100.00;98974.59;5034200;28;20221;-71
2023/03/05 05:54:51;;;;;;;0.50;0.50;;;;;;;5.30;100.00;98969.50;5032052;28;20197;-71
2023/03/05 05:57:17;;;;;;;0.60;0.60;;;;;;;5.33;100.00;98973.72;5031460;28;20577;-71
2023/03/05 05:59:44;;;;;;;0.60;0.60;;;;;;;5.36;100.00;98968.59;5031485;28;20209;-71
2023/03/05 06:02:11;;;;;;;0.60;0.60;;;;;;;5.41;100.00;98977.81;5031815;28;20198;-71
2023/03/05 06:04:39;;;;;;;0.57;0.57;;;;;;;5.46;100.00;98975.22;5031670;28;20197;-71
2023/03/05 06:07:06;;;;;;;0.50;0.50;;;;;;;5.50;100.00;98976.81;5032495;28;20205;-71
2023/03/05 06:09:35;;;;;;;0.47;0.47;;;;;;;5.49;100.00;98985.31;5034209;28;20671;-65
2023/03/05 06:12:02;;;;;;;0.97;0.97;;;;;;;5.53;100.00;98981.84;5035770;28;20206;-65
2023/03/05 06:14:29;;;;;;;0.60;0.60;;;;;;;5.58;100.00;98980.06;5029612;28;20204;-65
2023/03/05 06:16:55;;;;;;;0.60;0.60;;;;;;;5.65;100.00;98976.56;5022320;28;20212;-66
2023/03/05 06:19:22;;;;;;;0.60;0.60;;;;;;;5.70;100.00;98984.94;5030449;28;20204;-65
2023/03/05 06:21:50;;;;;;;2.03;0.83;;;;;;;5.76;100.00;98984.84;5031221;28;20271;-65
2023/03/05 06:24:18;;;;;;;0.50;0.50;;;;;;;5.75;100.00;98983.19;5032686;28;20283;-64
2023/03/05 06:26:47;;;;;;;0.60;0.60;;;;;;;5.81;100.00;98993.25;5031017;28;20631;-65
2023/03/05 06:29:14;;;;;;;0.70;0.70;;;;;;;5.79;100.00;98969.53;5031467;28;20288;-65
2023/03/05 06:31:41;;;;;;;0.60;0.60;;;;;;;5.98;100.00;98991.25;5032064;28;20237;-65
2023/03/05 06:34:07;;;;;;;0.60;0.60;;;;;;;6.06;100.00;98988.56;5029365;28;20299;-66
2023/03/05 06:36:34;;;;;;;0.60;0.60;;;;;;;6.17;100.00;98991.78;5031235;28;20205;-64
2023/03/05 06:39:03;;;;;;;0.47;0.47;;;;;;;6.26;100.00;98987.34;5030076;28;20205;-65
2023/03/05 06:41:31;;;;;;;0.60;0.60;;;;;;;6.32;100.00;98986.38;5028519;28;20224;-64
2023/03/05 06:44:01;;;;;;;0.60;0.60;;;;;;;6.42;100.00;98998.06;5029585;28;20227;-65
2023/03/05 06:46:29;;;;;;;0.70;0.70;;;;;;;6.50;100.00;98990.25;5030265;28;20224;-65
2023/03/05 06:48:57;;;;;;;0.70;0.70;;;;;;;6.61;100.00;98995.97;5031653;28;20222;-65
2023/03/05 06:51:26;;;;;;;0.60;0.60;;;;;;;6.72;100.00;99001.69;5030501;28;20267;-65
2023/03/05 06:53:53;;;;;;;0.60;0.60;;;;;;;6.80;100.00;99002.34;5029095;28;20209;-65
2023/03/05 06:56:22;;;;;;;0.87;0.87;;;;;;;6.81;100.00;98996.41;5029115;28;20201;-64
2023/03/05 06:58:50;;;;;;;0.50;0.50;;;;;;;6.79;100.00;98977.75;5030170;28;20213;-65
2023/03/05 07:01:18;;;;;;;0.50;0.50;;;;;;;6.97;100.00;98992.63;5032135;28;20292;-65
2023/03/05 07:03:45;;;;;;;0.80;0.80;;;;;;;7.03;100.00;98987.41;5029529;28;20217;-65
2023/03/05 07:06:14;;;;;;;0.50;0.50;;;;;;;7.11;100.00;98993.16;5031229;28;20263;-65
2023/03/05 07:08:41;;;;;;;0.40;0.40;;;;;;;7.16;100.00;98991.34;5028718;28;20612;-65
2023/03/05 07:11:10;;;;;;;0.50;0.50;;;;;;;7.08;100.00;98961.78;5028082;28;20201;-65
2023/03/05 07:13:38;;;;;;;0.40;0.40;;;;;;;7.34;100.00;98983.25;5029668;28;20225;-64
2023/03/05 07:16:07;;;;;;;0.60;0.60;;;;;;;7.45;100.00;98972.81;5031316;28;20288;-65
2023/03/05 07:18:33;;;;;;;0.50;0.50;;;;;;;7.54;100.00;98979.38;5029256;28;20588;-65
2023/03/05 07:21:03;;;;;;;0.50;0.50;;;;;;;7.71;100.00;98982.38;5030300;28;20216;-64
2023/03/05 07:23:29;;;;;;;0.60;0.60;;;;;;;7.88;100.00;98975.13;5030135;28;20232;-65
2023/03/05 07:25:56;;;;;;;0.50;0.50;;;;;;;8.02;100.00;98975.59;5029507;28;20616;-64
2023/03/05 07:28:23;;;;;;;0.50;0.50;;;;;;;8.17;100.00;98977.75;5028864;28;20232;-64
2023/03/05 07:30:57;;;;;;;0.67;0.67;;;;;;;8.35;100.00;98981.53;5028941;28;20197;-65
2023/03/05 07:33:24;;;;;;;0.70;0.70;;;;;;;8.52;100.00;98983.59;5030182;28;20720;-65
2023/03/05 07:35:51;;;;;;;0.50;0.50;;;;;;;8.68;100.00;98984.84;5029162;28;20208;-65
2023/03/05 07:38:17;;;;;;;0.43;0.43;;;;;;;8.98;100.00;98983.94;5028532;28;20647;-65
2023/03/05 07:40:44;;;;;;;0.47;0.47;;;;;;;9.13;100.00;98983.47;5029382;28;20208;-65
2023/03/05 07:43:11;;;;;;;0.60;0.60;;;;;;;9.25;100.00;98985.63;5034292;28;20221;-65
2023/03/05 07:45:40;;;;;;;0.60;0.60;;;;;;;9.36;100.00;98973.34;5031810;28;20677;-65
2023/03/05 07:48:09;;;;;;;0.40;0.40;;;;;;;9.43;100.00;98977.38;5032517;28;20197;-65
2023/03/05 07:50:35;;;;;;;0.43;0.43;;;;;;;9.56;100.00;98982.09;5033513;28;20201;-65
2023/03/05 07:53:02;;;;;;;0.50;0.50;;;;;;;9.63;100.00;98975.91;5029919;28;20293;-65
2023/03/05 07:55:29;;;;;;;0.50;0.50;;;;;;;9.61;100.00;98975.09;5036877;28;20726;-65
2023/03/05 07:57:56;;;;;;;0.50;0.50;;;;;;;9.74;100.00;98976.38;5034858;28;20245;-65
2023/03/05 08:00:23;;;;;;;0.50;0.50;;;;;;;9.83;100.00;98970.94;5031847;28;20264;-64
2023/03/05 08:05:39;;;;;;;0.40;0.40;;;;;;;9.83;100.00;98955.56;4890327;23;20753;-69
2023/03/05 08:08:06;;;;;;;0.80;0.80;;;;;;;9.86;100.00;98963.97;5045975;28;20212;-68
2023/03/05 08:10:33;;;;;;;0.60;0.60;;;;;;;9.91;100.00;98968.97;5059170;28;20574;-69
2023/03/05 08:13:00;;;;;;;0.50;0.50;;;;;;;9.89;100.00;98955.34;5064737;28;20207;-68
2023/03/05 08:15:27;;;;;;;0.77;0.77;;;;;;;10.03;100.00;98963.41;5065381;28;20208;-68
2023/03/05 08:17:54;;;;;;;0.30;0.30;;;;;;;10.11;100.00;98966.56;5053484;28;20213;-69
2023/03/05 08:20:20;;;;;;;0.47;0.47;;;;;;;10.00;100.00;98946.44;5060790;28;20295;-68
2023/03/05 08:22:48;;;;;;;0.50;0.50;;;;;;;10.15;100.00;98963.00;5065700;28;21693;-69
2023/03/05 08:25:16;;;;;;;0.40;0.40;;;;;;;10.18;100.00;98955.22;5059927;28;20574;-69
2023/03/05 08:27:44;;;;;;;0.50;0.50;;;;;;;10.19;100.00;98948.38;5066190;28;20200;-68
2023/03/05 08:30:13;;;;;;;1.80;0.93;;;;;;;10.19;100.00;98949.22;5064761;28;20200;-69
2023/03/05 08:32:40;;;;;;;0.50;0.50;;;;;;;10.22;100.00;98948.25;5063695;28;20235;-68
2023/03/05 08:35:08;;;;;;;0.50;0.50;;;;;;;10.22;100.00;98949.09;5061398;28;20933;-69
2023/03/05 08:37:35;;;;;;;0.90;0.90;;;;;;;10.17;100.00;98940.75;5064124;28;20689;-68
2023/03/05 08:40:04;;;;;;;0.50;0.50;;;;;;;10.19;100.00;98948.38;5055587;28;20208;-69
2023/03/05 08:42:31;;;;;;;0.50;0.50;;;;;;;10.25;100.00;98933.63;5065815;28;20217;-69
2023/03/05 08:44:58;;;;;;;0.40;0.40;;;;;;;10.28;100.00;98930.94;5067145;28;20244;-69
2023/03/05 08:47:26;;;;;;;0.63;0.63;;;;;;;10.34;100.00;98929.91;5063643;28;20211;-69
2023/03/05 08:49:54;;;;;;;0.60;0.60;;;;;;;10.38;100.00;98924.59;5059308;28;20212;-69
2023/03/05 08:52:21;;;;;;;1.13;1.13;;;;;;;10.39;100.00;98923.72;5060067;28;20299;-69
2023/03/05 08:54:47;;;;;;;0.63;0.63;;;;;;;10.50;100.00;98924.13;5062355;28;20223;-70
2023/03/05 08:57:16;;;;;;;0.70;0.70;;;;;;;10.60;100.00;98913.56;5057004;28;20669;-69
2023/03/05 08:59:42;;;;;;;0.40;0.40;;;;;;;10.70;100.00;98914.84;5057361;28;20200;-69
2023/03/05 09:02:11;;;;;;;0.53;0.53;;;;;;;10.76;100.00;98909.50;5058879;28;20672;-69
2023/03/05 09:04:37;;;;;;;0.57;0.57;;;;;;;10.81;100.00;98912.72;5050649;28;20799;-69
2023/03/05 09:07:04;;;;;;;0.87;0.87;;;;;;;10.87;100.00;98917.59;5056676;28;20217;-69
2023/03/05 09:09:31;;;;;;;0.60;0.60;;;;;;;10.90;100.00;98917.47;5059401;28;20662;-69
2023/03/05 09:11:58;;;;;;;0.50;0.50;;;;;;;10.92;100.00;98915.72;5059720;28;20209;-69
2023/03/05 09:14:27;;;;;;;0.60;0.60;;;;;;;10.86;100.00;98897.97;5058631;28;20228;-69
2023/03/05 09:16:54;;;;;;;0.70;0.70;;;;;;;10.97;100.00;98918.91;5063542;28;20208;-69
2023/03/05 09:19:21;;;;;;;0.40;0.40;;;;;;;10.99;100.00;98914.53;5065091;28;20212;-69
2023/03/05 09:21:47;;;;;;;0.40;0.40;;;;;;;11.04;100.00;98910.09;5056534;28;20691;-69
2023/03/05 09:24:14;;;;;;;0.50;0.50;;;;;;;10.92;100.00;98896.00;5058554;28;20219;-69
2023/03/05 09:26:41;;;;;;;0.40;0.40;;;;;;;11.07;100.00;98902.28;5056261;28;20208;-69
2023/03/05 09:29:08;;;;;;;0.50;0.50;;;;;;;11.10;100.00;98902.16;5061733;28;21593;-69
2023/03/05 09:31:36;;;;;;;0.75;0.75;;;;;;;11.16;100.00;98899.34;5056552;28;20439;-67
2023/03/05 09:34:04;;;;;;;0.60;0.60;;;;;;;11.25;100.00;98888.69;5069274;28;20699;-67
2023/03/05 09:36:32;;;;;;;0.40;0.40;;;;;;;11.29;100.00;98882.53;5068576;28;20208;-67
2023/03/05 09:38:58;;;;;;;0.50;0.50;;;;;;;11.48;100.00;98893.72;5063521;28;20204;-67
2023/03/05 09:41:33;;;;;;;0.50;0.50;;;;;;;11.54;100.00;98895.19;5063222;28;20204;-67
2023/03/05 09:44:09;;;;;;;0.50;0.50;;;;;;;11.63;100.00;98893.97;5064798;28;20215;-67
2023/03/05 09:46:50;;;;;;;1.23;1.23;;;;;;;11.66;100.00;98883.56;5062818;28;20207;-67
2023/03/05 09:49:23;;;;;;;0.40;0.40;;;;;;;11.66;100.00;98878.44;5053421;28;20686;-67
2023/03/05 09:51:57;;;;;;;0.57;0.57;;;;;;;11.71;100.00;98872.22;5055137;28;20694;-67
2023/03/05 09:54:33;;;;;;;0.90;0.90;;;;;;;11.80;100.00;98876.97;5052656;28;20200;-67
2023/03/05 09:57:03;;;;;;;0.70;0.70;;;;;;;11.98;100.00;98870.19;5065581;28;20723;-66
2023/03/05 09:59:36;;;;;;;0.60;0.60;;;;;;;11.99;100.00;98859.00;5063848;28;20237;-67
2023/03/05 10:02:15;;;;;;;0.43;0.43;;;;;;;12.28;100.00;98863.66;5064967;28;20212;-67
2023/03/05 10:04:46;;;;;;;0.40;0.40;;;;;;;12.40;99.27;98858.00;5050454;28;20671;-67
2023/03/05 10:07:19;;;;;;;0.50;0.50;;;;;;;12.43;94.38;98865.56;5053827;28;20259;-67
2023/03/05 10:09:51;;;;;;;1.10;1.10;;;;;;;12.58;93.78;98846.84;5051598;28;20212;-67
2023/03/05 10:12:26;;;;;;;0.60;0.60;;;;;;;12.68;91.21;98857.53;5064833;28;20582;-67
2023/03/05 10:14:54;;;;;;;0.80;0.80;;;;;;;12.66;90.59;98856.78;5070742;28;20629;-67
2023/03/05 10:17:57;;;;;;;0.97;0.97;;;;;;;12.69;90.56;98848.91;5070115;28;20716;-67
2023/03/05 10:20:52;;;;;;;0.60;0.60;;;;;;;12.71;89.94;98851.41;5070589;28;20200;-66
2023/03/05 10:23:48;;;;;;;0.87;0.87;;;;;;;12.76;91.35;98840.00;5070527;28;20192;-67
2023/03/05 10:26:23;;;;;;;0.50;0.50;;;;;;;12.72;89.91;98837.66;5045202;28;20680;-67
2023/03/05 10:29:02;;;;;;;1.23;1.23;;;;;;;12.73;90.96;98839.31;5050597;28;20200;-67
2023/03/05 10:31:46;;;;;;;0.60;0.60;;;;;;;12.81;91.79;98832.06;5070368;28;20199;-67
2023/03/05 10:34:28;;;;;;;0.40;0.40;;;;;;;12.89;90.92;98822.25;5070226;28;20291;-67
2023/03/05 10:37:17;;;;;;;0.40;0.40;;;;;;;12.98;92.16;98814.06;5070096;28;20283;-67
2023/03/05 10:40:13;;;;;;;0.60;0.60;;;;;;;13.18;90.02;98810.53;5052173;28;20950;-67
2023/03/05 10:42:48;;;;;;;0.60;0.60;;;;;;;13.41;91.18;98805.06;5064097;28;20757;-67
2023/03/05 10:45:18;;;;;;;0.50;0.50;;;;;;;13.51;89.05;98799.34;5050291;28;20328;-67
2023/03/05 10:47:51;;;;;;;0.40;0.40;;;;;;;13.56;87.02;98802.53;5068195;28;20204;-67
2023/03/05 10:50:21;;;;;;;0.57;0.57;;;;;;;13.68;86.20;98796.75;5059596;28;20199;-67
2023/03/05 10:52:55;;;;;;;0.63;0.63;;;;;;;13.69;85.85;98795.00;5057563;28;20233;-67
2023/03/05 10:55:22;;;;;;;0.50;0.50;;;;;;;13.68;85.71;98786.44;5070223;28;20540;-67
2023/03/05 10:57:50;;;;;;;1.70;1.70;;;;;;;13.70;86.76;98777.81;5053300;28;20204;-67
2023/03/05 11:00:20;;;;;;;0.50;0.50;;;;;;;13.71;83.54;98774.31;5069852;28;20629;-66
2023/03/05 11:02:59;;;;;;;0.77;0.77;;;;;;;13.83;83.84;98765.94;5058562;28;20677;-67
2023/03/05 11:05:50;;;;;;;0.50;0.50;;;;;;;14.07;84.56;98747.41;5057693;28;20239;-67
2023/03/05 11:08:26;;;;;;;1.70;0.90;;;;;;;14.24;85.22;98743.91;5047084;28;20204;-67
2023/03/05 11:11:05;;;;;;;0.93;0.93;;;;;;;14.29;82.08;98735.91;5070308;28;20196;-67
2023/03/05 11:13:33;;;;;;;0.43;0.43;;;;;;;14.44;81.59;98715.28;5058387;28;20217;-67
2023/03/05 11:16:01;;;;;;;0.50;0.50;;;;;;;14.63;81.12;98700.44;5055684;28;20192;-67
2023/03/05 11:18:33;;;;;;;0.47;0.47;;;;;;;14.92;81.99;98721.13;5072941;28;20583;-67
2023/03/05 11:21:09;;;;;;;1.17;1.17;;;;;;;14.98;77.90;98718.19;5066870;28;20213;-66
2023/03/05 11:23:36;;;;;;;0.40;0.40;;;;;;;14.95;74.94;98708.03;5065162;28;20264;-66
2023/03/05 11:26:05;;;;;;;0.50;0.50;;;;;;;14.90;77.05;98702.31;5056796;28;20267;-66
2023/03/05 11:28:35;;;;;;;0.50;0.50;;;;;;;14.99;76.87;98686.31;5069469;28;20606;-66
2023/03/05 11:31:20;;;;;;;0.53;0.53;;;;;;;15.06;78.21;98687.56;5060091;28;20204;-66
2023/03/05 11:33:57;;;;;;;0.50;0.50;;;;;;;15.17;79.44;98685.19;5059139;28;20208;-66
2023/03/05 11:36:27;;;;;;;0.60;0.60;;;;;;;15.25;74.64;98677.78;5056009;28;20205;-66
2023/03/05 11:38:58;;;;;;;0.70;0.70;;;;;;;15.28;76.32;98667.31;5063783;28;20235;-66
2023/03/05 11:41:30;;;;;;;0.80;0.80;;;;;;;15.35;76.31;98668.56;5058412;28;20208;-66